Boxborough, MA (01719)

6:38 AM EST on March 05, 2015 (GMT -0500)
Liberty Square Road | Change Station
CLOSE
Current Station
Personal Weather Station
Location: Boxborough, MA
Elevation: 72 ft
Nearby Weather Stations

Elev 72 ft 42.50 °N, 71.51 °W | Updated 8 minutes ago

Snow
Snow
33.9 °F
Feels Like 34 °F
N
3.0
Wind Variable Wind from NNW
Gusts 10.0 mph

Today
High -- | Low -- °F
--% Chance of Precip.
Yesterday
High -- | Low -- °F
Precip. -- in
6:15 AM 5:40 PM
Full, 100% visible
Pressure 29.99 in
Visibility 10.0 miles
Clouds Overcast 5500 ft
Windchill 34 °F
Dew Point 18 °F
Humidity 51%
Rainfall in
Snow Depth Not available.
UV 0.0 out of 12
Pollen .40 out of 12
Air Quality Not available.
Flu Activity Not available.
METAR KBED 051056Z 30006KT 10SM OVC055 01/M07 A2994 RMK AO2 SLP156 T00111072

More Conditions Fewer Conditions

Pressure 29.99 in
Visibility 10.0 miles
Clouds Overcast 5500 ft
Windchill 34 °F
Dew Point 18 °F
Humidity 51%
Rainfall in
Snow Depth Not available.
UV 0.0 out of 12
Pollen .40 out of 12
Air Quality Not available.
Flu Activity Not available.
METAR KBED 051056Z 30006KT 10SM OVC055 01/M07 A2994 RMK AO2 SLP156 T00111072

More Conditions Fewer Conditions

10-Day Weather Forecast

Almanac

Astronomy

Mar. 05, 2015 Rise Set
Actual Time
Civil Twilight
Nautical Twilight
Astronomical Twilight
Moon
Length of Visible Light
Length of Day
Tomorrow will be .
, % of the Moon is Illuminated

Today's Extremes

State Highs State Lows

Community

WunderPhotos

Upload Photos

1,802,716 photos uploaded!

WunderBlogs® & News

Nearby

Air Quality

  Air Quality AQ Index Pollutant
Not available.

Snow Depth

Station Depth Elevation

Earthquake Activity

City Distance Mag. Time & Date
Minimum magnitude displayed is 2.5.

Coastal Water Temperatures

Place Temperature

Nearby Weather Stations